Domov               UVHVVR             MKGP            O straneh              
ZDRAVSTVENO VARSTVO RASTLIN
  MREŽA AGROMET. POSTAJ
 ► PROGNOSTIČNA OBVESTILA
AGROMETEOROLOŠKI PODATKI -
ARSO
OBVLADOVANJE TVEGANJ ZARADI
NEUGODNIH VREMENSKIH RAZMER
  ► NARAVNE NESREČE
  ► SUŠA/MOČA
  ► NAMAKANJE
  ► ŽLED (gozdarstvo)
KARTOGRAFSKI PRIKAZI
SPLETNE POVEZAVE
PROJEKTI IN PUBLIKACIJE

AGROMETEOROLOŠKA MREŽA: VREMENSKE POSTAJE IN FENOLOŠKA OPAZOVANJA

Pregled podatkov za lokacijo Ojstriška vas, meteorološka postaja 24361

Pregled senzorjev na lokaciji

ID Ime Zadnja
vrednost
Datum
zadnje
spremembe
Tip
senzorja
2036 Relativna vlaga 2 m (% RH) 99,93 % RH 17.8.2017 07:30 Generic 0 - 100 %
2037 Temperatura 2 m ( °C) 15,43 °C 17.8.2017 07:30 Generic -40 - +60 °C
2038 Omočenost lista (U) 10 U 17.8.2017 07:30 A730WET
4058 Padavine 0.2 mm (mm) 0 mm 17.8.2017 07:30 Generic 0.2 mm

Pregled podatkov zadnjih 24 ur

Zap.
št.
Datum in čas Ojstriška vas
Omočenost
lista
Padavine
0.2
mm
Relativna
vlaga
2
m
Temperatura
2
m
0 17.8.2017 06:30 10 0 99,93 15,43
1 17.8.2017 06:00 10 0 99,93 13,77
2 17.8.2017 05:30 10 0 99,93 13,02
3 17.8.2017 05:00 10 0 99,93 13,14
4 17.8.2017 04:30 10 0 99,93 13,48
5 17.8.2017 04:00 10 0 99,93 13,58
6 17.8.2017 03:30 10 0 99,93 13,8
7 17.8.2017 03:00 10 0 99,93 14,21
8 17.8.2017 02:30 10 0 99,88 14,46
9 17.8.2017 02:00 10 0 99,9 14,97
10 17.8.2017 01:30 10 0 99,93 15,51
11 17.8.2017 01:00 10 0 99,88 15,56
12 17.8.2017 00:30 10 0 99,88 15,78
13 17.8.2017 00:00 10 0 99,56 15,36
14 16.8.2017 23:30 10 0 99,46 16,21
15 16.8.2017 23:00 10 0 99,07 16,36
16 16.8.2017 22:30 10 0 98,85 17,07
17 16.8.2017 22:00 10 0 98,73 17,58
18 16.8.2017 21:30 10 0 98,36 17,75
19 16.8.2017 21:00 10 0 97,41 18,24
20 16.8.2017 20:30 10 0 95,82 18,9
21 16.8.2017 20:00 10 0,2 95,02 19,22
22 16.8.2017 19:30 10 0 89,08 19,85
23 16.8.2017 19:00 10 0 82,08 20,63
24 16.8.2017 18:30 10 0 76,63 21,49
25 16.8.2017 18:00 10 0 69,43 23
26 16.8.2017 17:30 1 0 64,4 24,37
27 16.8.2017 17:00 0 0 63,49 24,76
28 16.8.2017 16:30 0 0 63,91 25,74
29 16.8.2017 16:00 0 0 59,78 26,35
30 16.8.2017 15:30 0 0 53,43 27,52
31 16.8.2017 15:00 0 0 48,5 29,45
32 16.8.2017 14:30 0 0 48,42 29,04
33 16.8.2017 14:00 0 0 45,69 29,82
34 16.8.2017 13:30 0 0 45,52 29,52
35 16.8.2017 13:00 0 0 46,35 29,38
36 16.8.2017 12:30 0 0 48,18 28,69
37 16.8.2017 12:00 0 0 47,67 28,57
38 16.8.2017 11:30 0 0 48,57 28,25
39 16.8.2017 11:00 0 0 48,55 28,03
40 16.8.2017 10:30 0 0 50,31 27,13
41 16.8.2017 10:00 0 0 54,04 26,18
42 16.8.2017 09:30 0 0 54,43 25,52
43 16.8.2017 09:00 0 0 58,19 25,01
44 16.8.2017 08:30 4 0 64,03 22,71
45 16.8.2017 08:00 10 0 70,84 21,25
© 2011 Ministrstvo za kmetijstvo, gozdarstvo in prehrano. Vse pravice pridržane.